sensor_id;sensor_type;location;lat;lon;timestamp;P1;durP1;ratioP1;P2;durP2;ratioP2
82926;SDS011;72788;40.218;44.486;2024-03-08T00:01:18;8.50;;;2.40;;
82926;SDS011;72788;40.218;44.486;2024-03-08T00:03:44;8.98;;;3.38;;
82926;SDS011;72788;40.218;44.486;2024-03-08T00:06:10;10.50;;;3.20;;
82926;SDS011;72788;40.218;44.486;2024-03-08T00:08:35;10.73;;;3.10;;
82926;SDS011;72788;40.218;44.486;2024-03-08T00:11:01;11.50;;;3.70;;
82926;SDS011;72788;40.218;44.486;2024-03-08T00:13:27;8.68;;;3.38;;
82926;SDS011;72788;40.218;44.486;2024-03-08T00:15:53;10.32;;;3.90;;
82926;SDS011;72788;40.218;44.486;2024-03-08T00:18:19;11.80;;;4.18;;
82926;SDS011;72788;40.218;44.486;2024-03-08T00:20:44;12.77;;;4.28;;
82926;SDS011;72788;40.218;44.486;2024-03-08T00:23:10;14.07;;;4.35;;
82926;SDS011;72788;40.218;44.486;2024-03-08T00:25:36;11.73;;;4.20;;
82926;SDS011;72788;40.218;44.486;2024-03-08T00:28:02;12.55;;;4.70;;
82926;SDS011;72788;40.218;44.486;2024-03-08T00:30:30;16.65;;;4.60;;
82926;SDS011;72788;40.218;44.486;2024-03-08T00:32:56;11.45;;;4.43;;
82926;SDS011;72788;40.218;44.486;2024-03-08T00:35:22;11.25;;;4.22;;
82926;SDS011;72788;40.218;44.486;2024-03-08T00:37:48;12.70;;;4.32;;
82926;SDS011;72788;40.218;44.486;2024-03-08T00:40:14;15.20;;;5.80;;
82926;SDS011;72788;40.218;44.486;2024-03-08T00:42:39;14.15;;;5.40;;
82926;SDS011;72788;40.218;44.486;2024-03-08T00:45:06;14.80;;;5.72;;
82926;SDS011;72788;40.218;44.486;2024-03-08T00:47:33;14.20;;;5.45;;
82926;SDS011;72788;40.218;44.486;2024-03-08T00:49:58;16.45;;;6.35;;
82926;SDS011;72788;40.218;44.486;2024-03-08T00:52:24;18.08;;;6.50;;
82926;SDS011;72788;40.218;44.486;2024-03-08T00:54:50;14.75;;;6.40;;
82926;SDS011;72788;40.218;44.486;2024-03-08T00:57:16;16.77;;;5.93;;
82926;SDS011;72788;40.218;44.486;2024-03-08T00:59:41;15.48;;;6.22;;
82926;SDS011;72788;40.218;44.486;2024-03-08T01:02:07;14.95;;;5.97;;
82926;SDS011;72788;40.218;44.486;2024-03-08T01:04:35;19.70;;;6.38;;
82926;SDS011;72788;40.218;44.486;2024-03-08T01:07:02;18.70;;;7.40;;
82926;SDS011;72788;40.218;44.486;2024-03-08T01:09:28;20.67;;;7.20;;
82926;SDS011;72788;40.218;44.486;2024-03-08T01:11:54;16.77;;;6.95;;
82926;SDS011;72788;40.218;44.486;2024-03-08T01:14:23;18.80;;;8.23;;
82926;SDS011;72788;40.218;44.486;2024-03-08T01:16:55;18.42;;;7.45;;
82926;SDS011;72788;40.218;44.486;2024-03-08T01:19:21;14.32;;;5.68;;
82926;SDS011;72788;40.218;44.486;2024-03-08T01:21:47;16.80;;;6.35;;
82926;SDS011;72788;40.218;44.486;2024-03-08T01:24:12;21.30;;;7.65;;
82926;SDS011;72788;40.218;44.486;2024-03-08T01:26:46;14.65;;;5.78;;
82926;SDS011;72788;40.218;44.486;2024-03-08T01:29:12;17.08;;;5.30;;
82926;SDS011;72788;40.218;44.486;2024-03-08T01:31:38;15.30;;;5.95;;
82926;SDS011;72788;40.218;44.486;2024-03-08T01:34:04;15.20;;;5.30;;
82926;SDS011;72788;40.218;44.486;2024-03-08T01:36:29;16.88;;;5.78;;
82926;SDS011;72788;40.218;44.486;2024-03-08T01:38:55;17.23;;;5.88;;
82926;SDS011;72788;40.218;44.486;2024-03-08T01:41:21;16.02;;;5.80;;
82926;SDS011;72788;40.218;44.486;2024-03-08T01:43:47;14.93;;;5.68;;
82926;SDS011;72788;40.218;44.486;2024-03-08T01:46:13;16.52;;;6.05;;
82926;SDS011;72788;40.218;44.486;2024-03-08T01:48:43;15.60;;;5.45;;
82926;SDS011;72788;40.218;44.486;2024-03-08T01:51:09;22.95;;;6.63;;
82926;SDS011;72788;40.218;44.486;2024-03-08T01:53:37;21.98;;;5.95;;
82926;SDS011;72788;40.218;44.486;2024-03-08T01:56:03;15.68;;;5.25;;
82926;SDS011;72788;40.218;44.486;2024-03-08T01:58:31;18.05;;;5.97;;
82926;SDS011;72788;40.218;44.486;2024-03-08T02:00:58;17.95;;;5.72;;
82926;SDS011;72788;40.218;44.486;2024-03-08T02:03:24;18.05;;;5.57;;
82926;SDS011;72788;40.218;44.486;2024-03-08T02:05:52;16.58;;;5.40;;
82926;SDS011;72788;40.218;44.486;2024-03-08T02:08:19;11.25;;;3.70;;
82926;SDS011;72788;40.218;44.486;2024-03-08T02:10:47;10.25;;;2.95;;
82926;SDS011;72788;40.218;44.486;2024-03-08T02:13:14;8.13;;;2.60;;
82926;SDS011;72788;40.218;44.486;2024-03-08T02:15:50;9.70;;;2.60;;
82926;SDS011;72788;40.218;44.486;2024-03-08T02:18:26;9.02;;;3.45;;
82926;SDS011;72788;40.218;44.486;2024-03-08T02:20:57;7.07;;;2.17;;
82926;SDS011;72788;40.218;44.486;2024-03-08T02:23:24;7.85;;;2.72;;
82926;SDS011;72788;40.218;44.486;2024-03-08T02:25:51;10.27;;;2.83;;
82926;SDS011;72788;40.218;44.486;2024-03-08T02:28:18;10.30;;;3.03;;
82926;SDS011;72788;40.218;44.486;2024-03-08T02:30:48;8.88;;;3.03;;
82926;SDS011;72788;40.218;44.486;2024-03-08T02:33:16;10.00;;;2.70;;
82926;SDS011;72788;40.218;44.486;2024-03-08T02:35:46;8.82;;;2.70;;
82926;SDS011;72788;40.218;44.486;2024-03-08T02:38:13;10.50;;;3.25;;
82926;SDS011;72788;40.218;44.486;2024-03-08T02:40:47;10.35;;;2.67;;
82926;SDS011;72788;40.218;44.486;2024-03-08T02:43:14;7.18;;;2.53;;
82926;SDS011;72788;40.218;44.486;2024-03-08T02:45:41;7.95;;;2.78;;
82926;SDS011;72788;40.218;44.486;2024-03-08T02:48:07;14.85;;;3.97;;
82926;SDS011;72788;40.218;44.486;2024-03-08T02:50:34;11.07;;;3.30;;
82926;SDS011;72788;40.218;44.486;2024-03-08T02:53:02;10.68;;;3.72;;
82926;SDS011;72788;40.218;44.486;2024-03-08T02:55:29;9.95;;;3.47;;
82926;SDS011;72788;40.218;44.486;2024-03-08T02:57:55;10.80;;;3.35;;
82926;SDS011;72788;40.218;44.486;2024-03-08T03:00:22;12.05;;;3.47;;
82926;SDS011;72788;40.218;44.486;2024-03-08T03:02:51;10.13;;;3.53;;
82926;SDS011;72788;40.218;44.486;2024-03-08T03:05:22;9.32;;;3.20;;
82926;SDS011;72788;40.218;44.486;2024-03-08T03:07:49;9.30;;;3.42;;
82926;SDS011;72788;40.218;44.486;2024-03-08T03:10:18;10.20;;;3.67;;
82926;SDS011;72788;40.218;44.486;2024-03-08T03:12:47;12.30;;;3.58;;
82926;SDS011;72788;40.218;44.486;2024-03-08T03:15:16;8.50;;;3.20;;
82926;SDS011;72788;40.218;44.486;2024-03-08T03:17:46;11.18;;;3.30;;
82926;SDS011;72788;40.218;44.486;2024-03-08T03:20:17;10.63;;;3.95;;
82926;SDS011;72788;40.218;44.486;2024-03-08T03:22:48;10.00;;;3.20;;
82926;SDS011;72788;40.218;44.486;2024-03-08T03:25:21;9.85;;;3.22;;
82926;SDS011;72788;40.218;44.486;2024-03-08T03:28:00;9.88;;;3.10;;
82926;SDS011;72788;40.218;44.486;2024-03-08T03:30:29;9.77;;;2.88;;
82926;SDS011;72788;40.218;44.486;2024-03-08T03:33:01;10.60;;;3.05;;
82926;SDS011;72788;40.218;44.486;2024-03-08T03:35:32;11.52;;;3.30;;
82926;SDS011;72788;40.218;44.486;2024-03-08T03:37:58;12.02;;;3.10;;
82926;SDS011;72788;40.218;44.486;2024-03-08T03:40:41;12.55;;;3.22;;
82926;SDS011;72788;40.218;44.486;2024-03-08T03:43:07;12.70;;;2.97;;
82926;SDS011;72788;40.218;44.486;2024-03-08T03:45:34;9.23;;;3.58;;
82926;SDS011;72788;40.218;44.486;2024-03-08T03:48:04;10.00;;;3.53;;
82926;SDS011;72788;40.218;44.486;2024-03-08T03:52:59;12.18;;;3.85;;
82926;SDS011;72788;40.218;44.486;2024-03-08T03:55:25;12.32;;;3.58;;
82926;SDS011;72788;40.218;44.486;2024-03-08T03:57:52;12.82;;;4.03;;
82926;SDS011;72788;40.218;44.486;2024-03-08T04:00:18;11.77;;;3.42;;
82926;SDS011;72788;40.218;44.486;2024-03-08T04:02:44;14.35;;;3.63;;
82926;SDS011;72788;40.218;44.486;2024-03-08T04:05:10;10.38;;;3.47;;
82926;SDS011;72788;40.218;44.486;2024-03-08T04:07:37;16.85;;;4.57;;
82926;SDS011;72788;40.218;44.486;2024-03-08T04:10:03;10.25;;;3.05;;
82926;SDS011;72788;40.218;44.486;2024-03-08T04:12:31;8.63;;;2.88;;
82926;SDS011;72788;40.218;44.486;2024-03-08T04:14:59;13.13;;;3.75;;
82926;SDS011;72788;40.218;44.486;2024-03-08T04:17:25;10.57;;;3.00;;
82926;SDS011;72788;40.218;44.486;2024-03-08T04:19:51;8.55;;;2.97;;
82926;SDS011;72788;40.218;44.486;2024-03-08T04:22:18;7.82;;;2.28;;
82926;SDS011;72788;40.218;44.486;2024-03-08T04:24:44;8.63;;;2.75;;
82926;SDS011;72788;40.218;44.486;2024-03-08T04:27:11;7.95;;;2.47;;
82926;SDS011;72788;40.218;44.486;2024-03-08T04:29:37;10.63;;;2.55;;
82926;SDS011;72788;40.218;44.486;2024-03-08T04:32:03;10.48;;;2.40;;
82926;SDS011;72788;40.218;44.486;2024-03-08T04:34:31;9.65;;;2.95;;
82926;SDS011;72788;40.218;44.486;2024-03-08T04:36:59;6.85;;;2.05;;
82926;SDS011;72788;40.218;44.486;2024-03-08T04:39:27;9.07;;;2.38;;
82926;SDS011;72788;40.218;44.486;2024-03-08T04:42:02;9.90;;;2.65;;
82926;SDS011;72788;40.218;44.486;2024-03-08T04:44:29;9.52;;;3.17;;
82926;SDS011;72788;40.218;44.486;2024-03-08T04:46:56;13.15;;;2.88;;
82926;SDS011;72788;40.218;44.486;2024-03-08T04:49:21;10.50;;;2.95;;
82926;SDS011;72788;40.218;44.486;2024-03-08T04:51:47;12.57;;;3.65;;
82926;SDS011;72788;40.218;44.486;2024-03-08T04:54:13;8.15;;;3.00;;
82926;SDS011;72788;40.218;44.486;2024-03-08T04:56:39;10.10;;;3.45;;
82926;SDS011;72788;40.218;44.486;2024-03-08T04:59:05;11.93;;;3.90;;
82926;SDS011;72788;40.218;44.486;2024-03-08T05:01:33;16.60;;;4.10;;
82926;SDS011;72788;40.218;44.486;2024-03-08T05:03:59;11.40;;;3.90;;
82926;SDS011;72788;40.218;44.486;2024-03-08T05:06:25;15.57;;;4.38;;
82926;SDS011;72788;40.218;44.486;2024-03-08T05:08:50;11.57;;;4.53;;
82926;SDS011;72788;40.218;44.486;2024-03-08T05:11:16;16.65;;;4.45;;
82926;SDS011;72788;40.218;44.486;2024-03-08T05:13:42;13.07;;;4.25;;
82926;SDS011;72788;40.218;44.486;2024-03-08T05:16:08;12.95;;;4.03;;
82926;SDS011;72788;40.218;44.486;2024-03-08T05:18:34;11.77;;;3.90;;
82926;SDS011;72788;40.218;44.486;2024-03-08T05:21:01;16.00;;;4.97;;
82926;SDS011;72788;40.218;44.486;2024-03-08T05:23:29;13.38;;;3.97;;
82926;SDS011;72788;40.218;44.486;2024-03-08T05:25:55;15.27;;;4.70;;
82926;SDS011;72788;40.218;44.486;2024-03-08T05:28:21;15.27;;;5.07;;
82926;SDS011;72788;40.218;44.486;2024-03-08T05:30:49;14.27;;;5.00;;
82926;SDS011;72788;40.218;44.486;2024-03-08T05:33:15;12.73;;;4.93;;
82926;SDS011;72788;40.218;44.486;2024-03-08T05:35:41;12.75;;;4.25;;
82926;SDS011;72788;40.218;44.486;2024-03-08T05:38:07;16.88;;;4.38;;
82926;SDS011;72788;40.218;44.486;2024-03-08T05:40:33;14.43;;;4.07;;
82926;SDS011;72788;40.218;44.486;2024-03-08T05:42:58;18.05;;;5.65;;
82926;SDS011;72788;40.218;44.486;2024-03-08T05:45:25;11.80;;;4.05;;
82926;SDS011;72788;40.218;44.486;2024-03-08T05:47:51;18.02;;;4.10;;
82926;SDS011;72788;40.218;44.486;2024-03-08T05:50:19;20.52;;;6.47;;
82926;SDS011;72788;40.218;44.486;2024-03-08T05:52:45;21.38;;;8.68;;
82926;SDS011;72788;40.218;44.486;2024-03-08T05:55:12;13.10;;;4.38;;
82926;SDS011;72788;40.218;44.486;2024-03-08T05:57:40;14.05;;;3.55;;
82926;SDS011;72788;40.218;44.486;2024-03-08T06:00:07;11.52;;;4.15;;
82926;SDS011;72788;40.218;44.486;2024-03-08T06:02:36;14.23;;;4.57;;
82926;SDS011;72788;40.218;44.486;2024-03-08T06:05:07;11.13;;;4.13;;
82926;SDS011;72788;40.218;44.486;2024-03-08T06:07:34;21.52;;;5.03;;
82926;SDS011;72788;40.218;44.486;2024-03-08T06:10:00;15.90;;;4.97;;
82926;SDS011;72788;40.218;44.486;2024-03-08T06:12:26;14.98;;;4.45;;
82926;SDS011;72788;40.218;44.486;2024-03-08T06:14:54;16.58;;;4.93;;
82926;SDS011;72788;40.218;44.486;2024-03-08T06:17:22;14.52;;;5.22;;
82926;SDS011;72788;40.218;44.486;2024-03-08T06:19:50;16.67;;;5.32;;
82926;SDS011;72788;40.218;44.486;2024-03-08T06:22:17;17.63;;;5.60;;
82926;SDS011;72788;40.218;44.486;2024-03-08T06:24:45;16.67;;;5.30;;
82926;SDS011;72788;40.218;44.486;2024-03-08T06:27:10;16.52;;;5.18;;
82926;SDS011;72788;40.218;44.486;2024-03-08T06:29:36;15.93;;;5.10;;
82926;SDS011;72788;40.218;44.486;2024-03-08T06:32:02;13.57;;;5.03;;
82926;SDS011;72788;40.218;44.486;2024-03-08T06:34:28;18.13;;;6.40;;
82926;SDS011;72788;40.218;44.486;2024-03-08T06:36:53;19.83;;;5.60;;
82926;SDS011;72788;40.218;44.486;2024-03-08T06:39:26;14.80;;;5.28;;
82926;SDS011;72788;40.218;44.486;2024-03-08T06:41:52;14.43;;;5.00;;
82926;SDS011;72788;40.218;44.486;2024-03-08T06:44:17;11.75;;;4.53;;
82926;SDS011;72788;40.218;44.486;2024-03-08T06:46:47;18.92;;;5.55;;
82926;SDS011;72788;40.218;44.486;2024-03-08T06:49:13;18.73;;;6.07;;
82926;SDS011;72788;40.218;44.486;2024-03-08T06:51:40;17.75;;;6.63;;
82926;SDS011;72788;40.218;44.486;2024-03-08T06:54:06;20.38;;;6.88;;
82926;SDS011;72788;40.218;44.486;2024-03-08T06:56:37;25.13;;;6.30;;
82926;SDS011;72788;40.218;44.486;2024-03-08T06:59:03;13.95;;;5.90;;
82926;SDS011;72788;40.218;44.486;2024-03-08T07:01:29;12.27;;;4.80;;
82926;SDS011;72788;40.218;44.486;2024-03-08T07:03:59;11.88;;;4.60;;
82926;SDS011;72788;40.218;44.486;2024-03-08T07:06:30;17.33;;;5.72;;
82926;SDS011;72788;40.218;44.486;2024-03-08T07:08:58;16.63;;;5.25;;
82926;SDS011;72788;40.218;44.486;2024-03-08T07:11:24;17.05;;;4.32;;
82926;SDS011;72788;40.218;44.486;2024-03-08T07:13:50;12.02;;;5.18;;
82926;SDS011;72788;40.218;44.486;2024-03-08T07:16:16;14.02;;;5.07;;
82926;SDS011;72788;40.218;44.486;2024-03-08T07:18:41;14.35;;;5.57;;
82926;SDS011;72788;40.218;44.486;2024-03-08T07:21:11;17.83;;;6.15;;
82926;SDS011;72788;40.218;44.486;2024-03-08T07:23:37;11.38;;;4.10;;
82926;SDS011;72788;40.218;44.486;2024-03-08T07:26:18;19.48;;;4.78;;
82926;SDS011;72788;40.218;44.486;2024-03-08T07:28:47;15.10;;;4.50;;
82926;SDS011;72788;40.218;44.486;2024-03-08T07:31:13;12.13;;;4.10;;
82926;SDS011;72788;40.218;44.486;2024-03-08T07:33:38;9.88;;;3.90;;
82926;SDS011;72788;40.218;44.486;2024-03-08T07:36:04;12.38;;;4.63;;
82926;SDS011;72788;40.218;44.486;2024-03-08T07:38:30;11.98;;;4.65;;
82926;SDS011;72788;40.218;44.486;2024-03-08T07:40:56;12.15;;;5.13;;
82926;SDS011;72788;40.218;44.486;2024-03-08T07:43:22;12.25;;;5.53;;
82926;SDS011;72788;40.218;44.486;2024-03-08T07:45:48;20.23;;;6.47;;
82926;SDS011;72788;40.218;44.486;2024-03-08T07:48:16;17.45;;;5.88;;
82926;SDS011;72788;40.218;44.486;2024-03-08T07:50:42;14.65;;;6.63;;
82926;SDS011;72788;40.218;44.486;2024-03-08T07:53:08;20.17;;;6.22;;
82926;SDS011;72788;40.218;44.486;2024-03-08T07:55:35;16.08;;;6.47;;
82926;SDS011;72788;40.218;44.486;2024-03-08T07:58:02;16.20;;;7.53;;
82926;SDS011;72788;40.218;44.486;2024-03-08T08:00:28;16.55;;;6.55;;
82926;SDS011;72788;40.218;44.486;2024-03-08T08:02:56;10.57;;;4.57;;
82926;SDS011;72788;40.218;44.486;2024-03-08T08:05:22;16.17;;;5.32;;
82926;SDS011;72788;40.218;44.486;2024-03-08T08:07:48;12.07;;;4.97;;
82926;SDS011;72788;40.218;44.486;2024-03-08T08:10:15;11.02;;;4.35;;
82926;SDS011;72788;40.218;44.486;2024-03-08T08:12:50;13.88;;;4.65;;
82926;SDS011;72788;40.218;44.486;2024-03-08T08:15:19;11.25;;;4.30;;
82926;SDS011;72788;40.218;44.486;2024-03-08T08:17:45;8.80;;;3.25;;
82926;SDS011;72788;40.218;44.486;2024-03-08T08:20:12;9.77;;;3.13;;
82926;SDS011;72788;40.218;44.486;2024-03-08T08:22:39;9.45;;;3.33;;
82926;SDS011;72788;40.218;44.486;2024-03-08T08:25:05;8.68;;;3.30;;
82926;SDS011;72788;40.218;44.486;2024-03-08T08:27:32;15.65;;;4.07;;
82926;SDS011;72788;40.218;44.486;2024-03-08T08:29:58;9.57;;;3.47;;
82926;SDS011;72788;40.218;44.486;2024-03-08T08:32:33;8.32;;;2.90;;
82926;SDS011;72788;40.218;44.486;2024-03-08T08:35:03;10.15;;;3.60;;
82926;SDS011;72788;40.218;44.486;2024-03-08T08:37:30;7.32;;;2.83;;
82926;SDS011;72788;40.218;44.486;2024-03-08T08:39:56;9.23;;;2.42;;
82926;SDS011;72788;40.218;44.486;2024-03-08T08:42:23;9.50;;;2.20;;
82926;SDS011;72788;40.218;44.486;2024-03-08T08:44:49;8.05;;;2.55;;
82926;SDS011;72788;40.218;44.486;2024-03-08T08:47:16;13.23;;;3.03;;
82926;SDS011;72788;40.218;44.486;2024-03-08T08:49:45;10.32;;;2.97;;
82926;SDS011;72788;40.218;44.486;2024-03-08T08:52:15;8.25;;;2.22;;
82926;SDS011;72788;40.218;44.486;2024-03-08T08:54:42;6.53;;;2.22;;
82926;SDS011;72788;40.218;44.486;2024-03-08T08:57:09;6.15;;;1.92;;
82926;SDS011;72788;40.218;44.486;2024-03-08T08:59:35;7.45;;;2.25;;
82926;SDS011;72788;40.218;44.486;2024-03-08T09:02:05;9.30;;;2.10;;
82926;SDS011;72788;40.218;44.486;2024-03-08T09:04:32;9.65;;;2.20;;
82926;SDS011;72788;40.218;44.486;2024-03-08T09:06:57;7.82;;;2.38;;
82926;SDS011;72788;40.218;44.486;2024-03-08T09:09:23;10.30;;;2.30;;
82926;SDS011;72788;40.218;44.486;2024-03-08T09:11:50;6.78;;;2.00;;
82926;SDS011;72788;40.218;44.486;2024-03-08T09:14:16;6.60;;;1.80;;
82926;SDS011;72788;40.218;44.486;2024-03-08T09:16:42;5.95;;;1.60;;
82926;SDS011;72788;40.218;44.486;2024-03-08T09:19:08;10.10;;;1.90;;
82926;SDS011;72788;40.218;44.486;2024-03-08T09:21:36;10.57;;;2.10;;
82926;SDS011;72788;40.218;44.486;2024-03-08T09:24:02;6.95;;;1.80;;
82926;SDS011;72788;40.218;44.486;2024-03-08T09:26:28;7.03;;;2.28;;
82926;SDS011;72788;40.218;44.486;2024-03-08T09:28:53;6.78;;;2.20;;
82926;SDS011;72788;40.218;44.486;2024-03-08T09:31:22;6.32;;;1.95;;
82926;SDS011;72788;40.218;44.486;2024-03-08T09:33:48;6.80;;;1.98;;
82926;SDS011;72788;40.218;44.486;2024-03-08T09:36:15;7.75;;;2.80;;
82926;SDS011;72788;40.218;44.486;2024-03-08T09:38:41;10.27;;;3.60;;
82926;SDS011;72788;40.218;44.486;2024-03-08T09:41:07;12.50;;;2.97;;
82926;SDS011;72788;40.218;44.486;2024-03-08T09:43:35;7.97;;;2.28;;
82926;SDS011;72788;40.218;44.486;2024-03-08T09:46:01;9.30;;;2.42;;
82926;SDS011;72788;40.218;44.486;2024-03-08T09:48:29;6.20;;;1.80;;
82926;SDS011;72788;40.218;44.486;2024-03-08T09:50:55;7.13;;;1.75;;
82926;SDS011;72788;40.218;44.486;2024-03-08T09:53:21;11.57;;;1.98;;
82926;SDS011;72788;40.218;44.486;2024-03-08T09:55:47;7.45;;;1.77;;
82926;SDS011;72788;40.218;44.486;2024-03-08T09:58:15;7.93;;;1.63;;
82926;SDS011;72788;40.218;44.486;2024-03-08T10:00:47;7.25;;;2.10;;
82926;SDS011;72788;40.218;44.486;2024-03-08T10:03:13;21.60;;;3.45;;
82926;SDS011;72788;40.218;44.486;2024-03-08T10:05:43;8.23;;;2.78;;
82926;SDS011;72788;40.218;44.486;2024-03-08T10:08:11;9.30;;;2.65;;
82926;SDS011;72788;40.218;44.486;2024-03-08T10:10:38;12.10;;;4.22;;
82926;SDS011;72788;40.218;44.486;2024-03-08T10:13:08;9.55;;;2.80;;
82926;SDS011;72788;40.218;44.486;2024-03-08T10:15:35;11.15;;;4.55;;
82926;SDS011;72788;40.218;44.486;2024-03-08T10:18:01;8.75;;;2.80;;
82926;SDS011;72788;40.218;44.486;2024-03-08T10:20:28;8.90;;;2.45;;
82926;SDS011;72788;40.218;44.486;2024-03-08T10:23:02;11.63;;;2.22;;
82926;SDS011;72788;40.218;44.486;2024-03-08T10:25:33;8.55;;;2.38;;
82926;SDS011;72788;40.218;44.486;2024-03-08T10:27:59;13.77;;;4.57;;
82926;SDS011;72788;40.218;44.486;2024-03-08T10:30:29;7.28;;;2.20;;
82926;SDS011;72788;40.218;44.486;2024-03-08T10:32:54;5.90;;;2.00;;
82926;SDS011;72788;40.218;44.486;2024-03-08T10:35:21;7.35;;;2.50;;
82926;SDS011;72788;40.218;44.486;2024-03-08T10:37:48;7.80;;;2.28;;
82926;SDS011;72788;40.218;44.486;2024-03-08T10:40:22;9.50;;;2.88;;
82926;SDS011;72788;40.218;44.486;2024-03-08T10:42:54;7.57;;;2.33;;
82926;SDS011;72788;40.218;44.486;2024-03-08T10:45:31;8.98;;;3.08;;
82926;SDS011;72788;40.218;44.486;2024-03-08T10:48:08;7.32;;;2.40;;
82926;SDS011;72788;40.218;44.486;2024-03-08T10:50:35;8.95;;;1.98;;
82926;SDS011;72788;40.218;44.486;2024-03-08T10:53:01;11.00;;;2.72;;
82926;SDS011;72788;40.218;44.486;2024-03-08T10:55:31;8.75;;;2.10;;
82926;SDS011;72788;40.218;44.486;2024-03-08T10:57:59;10.05;;;2.50;;
82926;SDS011;72788;40.218;44.486;2024-03-08T11:00:25;9.18;;;3.00;;
82926;SDS011;72788;40.218;44.486;2024-03-08T11:02:52;6.50;;;2.03;;
82926;SDS011;72788;40.218;44.486;2024-03-08T11:05:32;9.93;;;3.22;;
82926;SDS011;72788;40.218;44.486;2024-03-08T11:10:47;8.38;;;3.08;;
82926;SDS011;72788;40.218;44.486;2024-03-08T11:16:12;6.20;;;2.17;;
82926;SDS011;72788;40.218;44.486;2024-03-08T11:19:04;6.90;;;1.83;;
82926;SDS011;72788;40.218;44.486;2024-03-08T11:21:35;7.35;;;1.75;;
82926;SDS011;72788;40.218;44.486;2024-03-08T11:24:08;5.75;;;1.42;;
82926;SDS011;72788;40.218;44.486;2024-03-08T11:26:45;10.13;;;1.77;;
82926;SDS011;72788;40.218;44.486;2024-03-08T11:31:53;6.18;;;1.40;;
82926;SDS011;72788;40.218;44.486;2024-03-08T11:34:43;6.32;;;2.00;;
82926;SDS011;72788;40.218;44.486;2024-03-08T11:37:16;15.63;;;2.60;;
82926;SDS011;72788;40.218;44.486;2024-03-08T11:39:53;8.60;;;2.83;;
82926;SDS011;72788;40.218;44.486;2024-03-08T11:42:24;7.20;;;1.45;;
82926;SDS011;72788;40.218;44.486;2024-03-08T11:44:53;7.55;;;2.38;;
82926;SDS011;72788;40.218;44.486;2024-03-08T11:47:20;8.30;;;1.60;;
82926;SDS011;72788;40.218;44.486;2024-03-08T11:49:46;8.07;;;1.48;;
82926;SDS011;72788;40.218;44.486;2024-03-08T11:52:18;4.80;;;1.30;;
82926;SDS011;72788;40.218;44.486;2024-03-08T11:54:48;5.00;;;1.20;;
82926;SDS011;72788;40.218;44.486;2024-03-08T11:57:19;8.60;;;1.73;;
82926;SDS011;72788;40.218;44.486;2024-03-08T11:59:53;8.80;;;1.50;;
82926;SDS011;72788;40.218;44.486;2024-03-08T12:02:21;8.65;;;1.65;;
82926;SDS011;72788;40.218;44.486;2024-03-08T12:04:55;4.85;;;1.10;;
82926;SDS011;72788;40.218;44.486;2024-03-08T12:07:25;5.30;;;1.35;;
82926;SDS011;72788;40.218;44.486;2024-03-08T12:12:47;20.05;;;4.45;;
82926;SDS011;72788;40.218;44.486;2024-03-08T12:15:21;11.13;;;3.50;;
82926;SDS011;72788;40.218;44.486;2024-03-08T12:17:49;7.53;;;2.00;;
82926;SDS011;72788;40.218;44.486;2024-03-08T12:20:20;6.20;;;1.50;;
82926;SDS011;72788;40.218;44.486;2024-03-08T12:22:47;6.55;;;1.92;;
82926;SDS011;72788;40.218;44.486;2024-03-08T12:25:14;8.18;;;2.15;;
82926;SDS011;72788;40.218;44.486;2024-03-08T12:32:55;6.30;;;1.55;;
82926;SDS011;72788;40.218;44.486;2024-03-08T12:35:22;7.18;;;1.63;;
82926;SDS011;72788;40.218;44.486;2024-03-08T12:37:51;10.23;;;2.50;;
82926;SDS011;72788;40.218;44.486;2024-03-08T12:40:19;12.95;;;2.20;;
82926;SDS011;72788;40.218;44.486;2024-03-08T12:42:54;7.18;;;2.28;;
82926;SDS011;72788;40.218;44.486;2024-03-08T12:45:23;5.72;;;1.85;;
82926;SDS011;72788;40.218;44.486;2024-03-08T12:47:50;16.30;;;4.38;;
82926;SDS011;72788;40.218;44.486;2024-03-08T12:50:18;5.47;;;1.40;;
82926;SDS011;72788;40.218;44.486;2024-03-08T12:52:44;6.40;;;1.90;;
82926;SDS011;72788;40.218;44.486;2024-03-08T12:55:10;12.00;;;7.15;;
82926;SDS011;72788;40.218;44.486;2024-03-08T12:57:37;8.00;;;3.17;;
82926;SDS011;72788;40.218;44.486;2024-03-08T13:00:03;6.95;;;2.17;;
82926;SDS011;72788;40.218;44.486;2024-03-08T13:02:30;6.07;;;1.70;;
82926;SDS011;72788;40.218;44.486;2024-03-08T13:05:01;6.95;;;1.60;;
82926;SDS011;72788;40.218;44.486;2024-03-08T13:07:27;6.28;;;1.90;;
82926;SDS011;72788;40.218;44.486;2024-03-08T13:09:53;7.00;;;1.80;;
82926;SDS011;72788;40.218;44.486;2024-03-08T13:12:19;6.60;;;2.15;;
82926;SDS011;72788;40.218;44.486;2024-03-08T13:14:46;6.13;;;1.10;;
82926;SDS011;72788;40.218;44.486;2024-03-08T13:17:12;6.20;;;1.50;;
82926;SDS011;72788;40.218;44.486;2024-03-08T13:19:41;7.28;;;1.83;;
82926;SDS011;72788;40.218;44.486;2024-03-08T13:22:07;5.55;;;1.30;;
82926;SDS011;72788;40.218;44.486;2024-03-08T13:24:43;5.30;;;1.40;;
82926;SDS011;72788;40.218;44.486;2024-03-08T13:27:10;5.72;;;1.60;;
82926;SDS011;72788;40.218;44.486;2024-03-08T13:29:47;7.68;;;1.70;;
82926;SDS011;72788;40.218;44.486;2024-03-08T13:34:51;7.78;;;1.88;;
82926;SDS011;72788;40.218;44.486;2024-03-08T13:37:19;12.13;;;2.25;;
82926;SDS011;72788;40.218;44.486;2024-03-08T13:39:45;6.30;;;1.45;;
82926;SDS011;72788;40.218;44.486;2024-03-08T13:42:11;16.83;;;6.22;;
82926;SDS011;72788;40.218;44.486;2024-03-08T13:44:47;7.50;;;2.05;;
82926;SDS011;72788;40.218;44.486;2024-03-08T13:47:14;9.52;;;2.40;;
82926;SDS011;72788;40.218;44.486;2024-03-08T13:49:41;6.38;;;2.13;;
82926;SDS011;72788;40.218;44.486;2024-03-08T13:52:08;5.40;;;1.52;;
82926;SDS011;72788;40.218;44.486;2024-03-08T13:54:35;12.95;;;2.78;;
82926;SDS011;72788;40.218;44.486;2024-03-08T13:57:02;8.45;;;2.15;;
82926;SDS011;72788;40.218;44.486;2024-03-08T13:59:32;11.18;;;2.83;;
82926;SDS011;72788;40.218;44.486;2024-03-08T14:02:00;9.50;;;2.40;;
82926;SDS011;72788;40.218;44.486;2024-03-08T14:04:29;12.90;;;4.22;;
82926;SDS011;72788;40.218;44.486;2024-03-08T14:06:55;11.32;;;3.67;;
82926;SDS011;72788;40.218;44.486;2024-03-08T14:09:29;10.50;;;2.45;;
82926;SDS011;72788;40.218;44.486;2024-03-08T14:11:58;11.68;;;2.80;;
82926;SDS011;72788;40.218;44.486;2024-03-08T14:14:24;13.77;;;3.00;;
82926;SDS011;72788;40.218;44.486;2024-03-08T14:16:50;8.27;;;2.03;;
82926;SDS011;72788;40.218;44.486;2024-03-08T14:19:20;10.38;;;1.98;;
82926;SDS011;72788;40.218;44.486;2024-03-08T14:21:46;12.80;;;4.65;;
82926;SDS011;72788;40.218;44.486;2024-03-08T14:24:18;8.77;;;3.25;;
82926;SDS011;72788;40.218;44.486;2024-03-08T14:26:44;8.70;;;3.13;;
82926;SDS011;72788;40.218;44.486;2024-03-08T14:29:11;8.18;;;3.03;;
82926;SDS011;72788;40.218;44.486;2024-03-08T14:31:37;10.68;;;4.05;;
82926;SDS011;72788;40.218;44.486;2024-03-08T14:34:03;10.65;;;4.30;;
82926;SDS011;72788;40.218;44.486;2024-03-08T14:36:29;13.07;;;4.50;;
82926;SDS011;72788;40.218;44.486;2024-03-08T14:38:55;11.02;;;3.80;;
82926;SDS011;72788;40.218;44.486;2024-03-08T14:41:21;13.63;;;4.82;;
82926;SDS011;72788;40.218;44.486;2024-03-08T14:43:50;10.55;;;3.60;;
82926;SDS011;72788;40.218;44.486;2024-03-08T14:46:18;8.25;;;2.85;;
82926;SDS011;72788;40.218;44.486;2024-03-08T14:48:51;16.65;;;6.45;;
82926;SDS011;72788;40.218;44.486;2024-03-08T14:51:19;13.73;;;4.03;;